Aviation Digital Data Service (ADDS)

Output produced by METARs form (1441 UTC 10 December 2016)
found at http://aviationweather.gov/adds/metars/
 
KMFD 101135Z 1012/1112 24008KT P6SM OVC050 
     FM102000 24010G18KT P6SM BKN070 
     FM102300 23008KT P6SM OVC035 
     FM110600 22005KT 3SM -SN OVC015 
     FM110800 18005KT 1SM -SN OVC015